Time;durP1;ratioP1;P1;durP2;ratioP2;P2;SDS_P1;SDS_P2;PMS_P1;PMS_P2;Temp;Humidity;BMP_temperature;BMP_pressure;BME280_temperature;BME280_humidity;BME280_pressure;Samples;Min_cycle;Max_cycle;Signal;HPM_P1;HPM_P2
2021/12/18 00:01:06;;;;;;;1.70;1.60;;;;;;;20.23;39.95;100843.41;1874462;75;28220;-60
2021/12/18 00:03:55;;;;;;;3.35;1.70;;;;;;;20.23;39.99;100842.90;1867349;75;28091;-60
2021/12/18 00:06:44;;;;;;;1.87;1.77;;;;;;;20.25;39.96;100839.46;1869051;75;32499;-61
2021/12/18 00:09:33;;;;;;;1.60;1.50;;;;;;;20.25;39.90;100836.73;1857240;77;28236;-59
2021/12/18 00:12:22;;;;;;;1.97;1.70;;;;;;;20.23;39.94;100833.86;1857034;75;28271;-59
2021/12/18 00:15:10;;;;;;;1.65;1.55;;;;;;;20.24;39.95;100836.39;1882361;75;28109;-59
2021/12/18 00:17:59;;;;;;;1.67;1.57;;;;;;;20.25;39.90;100831.27;1870430;75;28183;-60
2021/12/18 00:20:48;;;;;;;1.85;1.70;;;;;;;20.25;39.90;100832.64;1868732;75;28144;-60
2021/12/18 00:23:37;;;;;;;1.70;1.60;;;;;;;20.21;39.91;100824.44;1869458;75;28697;-60
2021/12/18 00:26:25;;;;;;;1.67;1.57;;;;;;;20.23;39.90;100823.80;1856861;77;28166;-60
2021/12/18 00:29:15;;;;;;;2.22;1.60;;;;;;;20.28;39.83;100819.14;1857044;75;28125;-60
2021/12/18 00:32:05;;;;;;;1.70;1.60;;;;;;;20.26;39.81;100816.58;1874211;75;28303;-60
2021/12/18 00:34:53;;;;;;;1.92;1.80;;;;;;;20.25;39.91;100815.41;1884219;75;28140;-59
2021/12/18 00:37:43;;;;;;;1.62;1.52;;;;;;;20.26;39.85;100811.63;1868883;75;28121;-60
2021/12/18 00:40:44;;;;;;;1.47;1.37;;;;;;;20.23;39.93;100813.39;1873214;75;28153;-60
2021/12/18 00:43:29;;;;;;;1.65;1.55;;;;;;;20.25;39.88;100812.17;1869016;75;28680;-60
2021/12/18 00:46:14;;;;;;;1.60;1.50;;;;;;;20.24;39.91;100807.73;1875969;75;28124;-60
2021/12/18 00:49:06;;;;;;;1.98;1.50;;;;;;;20.26;39.91;100811.63;1869798;74;28273;-60
2021/12/18 00:51:54;;;;;;;2.15;1.55;;;;;;;20.27;39.87;100802.43;1870097;75;28254;-61
2021/12/18 00:54:43;;;;;;;1.57;1.47;;;;;;;20.27;39.83;100796.97;1875790;75;28120;-61
2021/12/18 00:57:31;;;;;;;1.80;1.70;;;;;;;20.27;39.81;100797.83;1870541;75;28127;-62
2021/12/18 01:00:24;;;;;;;1.70;1.60;;;;;;;20.31;39.81;100784.64;1868916;76;28154;-60
2021/12/18 01:03:20;;;;;;;2.02;1.62;;;;;;;20.30;39.72;100785.18;1880391;75;28258;-61
2021/12/18 01:06:04;;;;;;;2.77;1.50;;;;;;;20.30;39.71;100786.55;1873383;75;28264;-61
2021/12/18 01:08:56;;;;;;;1.80;1.70;;;;;;;20.29;39.81;100786.20;1868980;75;28174;-61
2021/12/18 01:11:46;;;;;;;1.60;1.50;;;;;;;20.30;39.76;100777.51;1868981;75;28180;-61
2021/12/18 01:23:15;;;;;;;1.80;1.70;;;;;;;20.29;39.77;100789.44;1767128;78;28472;-60
2021/12/18 01:26:04;;;;;;;1.67;1.57;;;;;;;20.30;39.72;100797.97;1868741;75;28238;-60
2021/12/18 01:28:53;;;;;;;1.57;1.50;;;;;;;20.31;39.70;100798.28;1869037;76;28103;-60
2021/12/18 01:31:41;;;;;;;1.60;1.50;;;;;;;20.31;39.66;100801.01;1883374;75;28264;-60
2021/12/18 01:34:29;;;;;;;1.70;1.60;;;;;;;20.28;39.72;100802.23;1868725;75;28185;-60
2021/12/18 01:37:20;;;;;;;2.10;1.60;;;;;;;20.31;39.63;100796.41;1868876;76;28189;-60
2021/12/18 01:40:11;;;;;;;1.75;1.60;;;;;;;20.32;39.62;100798.11;1868777;76;28212;-60
2021/12/18 01:47:05;;;;;;;1.47;1.37;;;;;;;20.33;39.56;100791.60;1870093;75;28291;-61
2021/12/18 01:52:23;;;;;;;2.00;1.55;;;;;;;20.32;39.59;100795.39;1869304;76;28226;-62
2021/12/18 01:55:10;;;;;;;1.70;1.60;;;;;;;20.29;39.62;100787.56;1868883;75;28187;-60
2021/12/18 01:57:59;;;;;;;1.70;1.60;;;;;;;20.33;39.54;100788.02;1881059;75;28153;-60
2021/12/18 02:00:48;;;;;;;2.05;1.42;;;;;;;20.33;39.57;100790.23;1873898;75;28223;-60
2021/12/18 02:03:37;;;;;;;1.57;1.50;;;;;;;20.34;39.57;100787.00;1873366;75;28199;-62
2021/12/18 02:06:25;;;;;;;2.10;1.70;;;;;;;20.36;39.49;100787.14;1869439;75;28253;-59
2021/12/18 02:09:14;;;;;;;1.50;1.50;;;;;;;20.39;39.46;100785.92;1869236;75;28293;-60
2021/12/18 02:12:04;;;;;;;1.60;1.50;;;;;;;20.39;39.41;100778.59;1869715;75;28199;-60
2021/12/18 02:20:56;;;;;;;1.73;1.63;;;;;;;20.39;39.41;100775.00;1873283;75;28300;-60
2021/12/18 02:23:45;;;;;;;1.60;1.50;;;;;;;20.39;39.41;100774.50;1889835;75;28276;-61
2021/12/18 02:26:34;;;;;;;2.55;1.55;;;;;;;20.39;39.40;100777.73;1869443;76;28122;-61
2021/12/18 02:29:22;;;;;;;2.17;1.60;;;;;;;20.42;39.37;100767.81;1881702;75;28139;-61
2021/12/18 02:32:12;;;;;;;1.60;1.50;;;;;;;20.40;39.34;100765.25;1869292;76;28766;-61
2021/12/18 02:35:05;;;;;;;1.75;1.65;;;;;;;20.41;39.36;100767.47;1880706;75;28317;-60
2021/12/18 02:37:51;;;;;;;1.75;1.45;;;;;;;20.41;39.34;100765.59;1869966;74;28168;-63
2021/12/18 20:07:14;;;;;;;5.55;3.77;;;;;;;15.90;56.30;100869.31;1935471;72;28202;-60
2021/12/18 20:10:03;;;;;;;4.08;3.33;;;;;;;16.21;55.38;100864.29;1912128;73;28265;-61
2021/12/18 20:12:55;;;;;;;4.75;3.45;;;;;;;16.99;54.10;100866.40;1906235;73;28055;-59
2021/12/18 20:15:44;;;;;;;5.03;3.72;;;;;;;17.62;52.83;100863.47;1921776;73;28074;-62
2021/12/18 20:18:33;;;;;;;4.92;3.70;;;;;;;18.16;51.74;100855.62;1913199;73;28194;-64
2021/12/18 20:21:22;;;;;;;5.45;3.60;;;;;;;18.58;50.64;100860.31;1913577;73;28190;-60
2021/12/18 20:24:12;;;;;;;4.08;3.77;;;;;;;18.89;49.79;100854.41;1909451;73;28024;-60
2021/12/18 20:27:03;;;;;;;5.10;3.50;;;;;;;19.16;49.10;100863.44;1931438;73;28020;-60
2021/12/18 20:29:53;;;;;;;4.70;3.70;;;;;;;19.39;48.47;100864.03;1914397;73;28078;-61
2021/12/18 20:32:42;;;;;;;3.98;3.60;;;;;;;19.57;48.00;100865.44;1902033;75;28138;-61
2021/12/18 20:35:31;;;;;;;4.25;3.85;;;;;;;19.73;47.68;100872.13;1931096;73;28117;-60
2021/12/18 20:38:21;;;;;;;5.45;3.65;;;;;;;19.83;47.27;100865.92;1910859;73;28259;-61
2021/12/18 20:41:12;;;;;;;4.80;3.92;;;;;;;19.95;47.10;100867.15;1922670;73;28049;-60
2021/12/18 20:44:01;;;;;;;6.50;4.30;;;;;;;20.04;46.77;100872.03;1903723;73;28204;-61
2021/12/18 20:46:50;;;;;;;5.25;3.90;;;;;;;20.12;46.54;100875.21;1926574;73;28021;-63
2021/12/18 20:49:38;;;;;;;5.28;4.10;;;;;;;20.18;46.33;100870.36;1913140;73;28021;-61
2021/12/18 20:52:29;;;;;;;4.60;4.15;;;;;;;20.24;46.20;100866.41;1910061;73;28193;-61
2021/12/18 20:55:19;;;;;;;6.00;4.07;;;;;;;20.27;46.09;100868.77;1902440;75;28518;-61
2021/12/18 20:58:09;;;;;;;5.12;4.10;;;;;;;20.30;45.99;100865.67;1920694;73;28052;-64
2021/12/18 21:01:04;;;;;;;4.37;3.87;;;;;;;20.36;45.77;100865.42;1902163;75;27990;-63
2021/12/18 21:03:49;;;;;;;5.28;4.05;;;;;;;20.40;45.64;100865.38;1902300;75;28059;-63
2021/12/18 21:06:56;;;;;;;5.87;4.22;;;;;;;20.39;45.62;100861.82;1906252;74;28160;-62
2021/12/18 21:09:45;;;;;;;4.30;3.90;;;;;;;20.40;45.57;100858.55;1918442;73;28118;-61
2021/12/18 21:12:35;;;;;;;5.42;4.03;;;;;;;20.41;45.54;100862.48;1911706;74;28118;-61
2021/12/18 21:15:24;;;;;;;4.47;3.90;;;;;;;20.46;45.36;100864.14;1867702;75;28314;-61
2021/12/18 21:18:15;;;;;;;5.45;3.90;;;;;;;20.48;45.29;100857.97;1903149;73;28578;-62
2021/12/18 21:21:05;;;;;;;4.55;3.83;;;;;;;20.48;45.27;100859.33;1901687;75;28100;-60
2021/12/18 21:23:54;;;;;;;7.10;4.30;;;;;;;20.51;45.26;100855.38;1901863;73;28180;-61
2021/12/18 21:26:43;;;;;;;5.17;3.95;;;;;;;20.50;45.19;100844.97;1915081;73;28159;-61
2021/12/18 21:29:31;;;;;;;4.37;3.97;;;;;;;20.50;45.21;100855.89;1903276;73;28077;-60
2021/12/18 21:32:19;;;;;;;4.08;3.65;;;;;;;20.53;45.14;100845.11;1922933;73;28086;-61
2021/12/18 21:38:17;;;;;;;5.53;4.00;;;;;;;20.54;44.95;100849.01;1901714;75;28215;-61
2021/12/18 21:41:06;;;;;;;4.92;3.75;;;;;;;20.52;44.99;100851.09;1858918;76;28120;-61
2021/12/18 21:43:55;;;;;;;4.30;3.90;;;;;;;20.56;44.95;100844.75;1901692;73;28138;-61
2021/12/18 21:46:44;;;;;;;4.47;4.00;;;;;;;20.56;44.94;100843.39;1906327;73;28290;-61
2021/12/18 21:49:32;;;;;;;4.47;4.07;;;;;;;20.59;44.89;100842.47;1905770;73;28138;-60
2021/12/18 21:52:21;;;;;;;4.23;3.83;;;;;;;20.60;44.87;100835.99;1901723;75;28055;-60
2021/12/18 21:55:10;;;;;;;4.47;3.95;;;;;;;20.61;44.78;100836.81;1907517;73;28082;-60
2021/12/18 21:57:59;;;;;;;4.92;4.00;;;;;;;20.60;44.76;100837.36;1902342;73;28080;-62
2021/12/18 22:00:49;;;;;;;4.65;3.90;;;;;;;20.60;44.80;100841.96;1903004;73;28120;-62
2021/12/18 22:03:38;;;;;;;4.70;4.10;;;;;;;20.60;44.80;100836.50;1916206;73;28075;-62
2021/12/18 22:06:26;;;;;;;5.00;3.98;;;;;;;20.61;44.74;100834.08;1901725;75;28048;-61
2021/12/18 22:09:16;;;;;;;4.20;3.80;;;;;;;20.59;44.81;100839.74;1897596;74;28034;-60
2021/12/18 22:12:05;;;;;;;4.53;4.10;;;;;;;20.60;44.80;100835.14;1923464;73;28052;-61
2021/12/18 22:14:53;;;;;;;5.22;3.92;;;;;;;20.61;44.80;100839.03;1889044;75;28053;-61
2021/12/18 22:17:42;;;;;;;5.50;3.80;;;;;;;20.62;44.76;100833.06;1901839;75;27996;-62
2021/12/18 22:20:30;;;;;;;8.98;4.67;;;;;;;20.58;44.80;100844.86;1901771;75;28542;-60
2021/12/18 22:23:19;;;;;;;10.47;4.23;;;;;;;20.60;44.83;100835.14;1901579;75;28073;-60
